createdAt,value
2022-10-09T02:42:54.048Z,8.33
2022-10-09T03:07:56.477Z,8.10
2022-10-09T03:11:08.184Z,13.08
2022-10-09T03:14:20.846Z,9.50
2022-10-09T03:17:32.841Z,10.33
2022-10-09T03:20:44.847Z,10.43
2022-10-09T03:23:57.512Z,10.25
2022-10-09T03:27:09.523Z,9.43
2022-10-09T03:30:21.839Z,11.48
2022-10-09T03:33:33.512Z,11.73
2022-10-09T03:36:47.157Z,8.88
2022-10-09T03:39:59.047Z,7.28
2022-10-09T03:43:11.022Z,10.40
2022-10-09T03:46:22.716Z,7.58
2022-10-09T03:49:34.563Z,14.85
2022-10-09T03:55:47.687Z,14.03
2022-10-09T03:59:02.548Z,13.38
2022-10-09T04:02:14.607Z,8.75
2022-10-09T04:05:26.551Z,10.25
2022-10-09T04:08:39.143Z,7.73
2022-10-09T04:21:25.286Z,10.15
2022-10-09T04:24:37.067Z,10.10
2022-10-09T04:27:48.766Z,9.00
2022-10-09T04:31:01.583Z,9.78
2022-10-09T04:34:13.677Z,10.53
2022-10-09T04:37:25.386Z,9.65
2022-10-09T05:28:30.275Z,9.88
2022-10-09T05:31:46.951Z,8.73
2022-10-09T05:34:57.204Z,9.35
2022-10-09T05:38:08.917Z,9.15
2022-10-09T05:41:22.831Z,9.30
2022-10-09T05:44:34.588Z,10.23
2022-10-09T05:47:46.439Z,7.58
2022-10-09T05:56:59.062Z,10.35
2022-10-09T06:47:12.474Z,5.75
2022-10-09T07:23:08.924Z,54.18
2022-10-09T07:26:24.879Z,25.73
2022-10-09T07:29:37.213Z,9.60
2022-10-09T07:32:49.170Z,8.85
2022-10-09T07:36:06.103Z,13.78
2022-10-09T07:39:19.115Z,7.90
2022-10-09T07:42:30.983Z,8.33
2022-10-09T07:45:44.511Z,11.80
2022-10-09T07:48:56.369Z,10.55
2022-10-09T07:52:08.446Z,12.48
2022-10-09T07:55:20.428Z,9.35
2022-10-09T07:58:32.458Z,10.83
2022-10-09T08:01:45.038Z,12.93
2022-10-09T08:04:57.003Z,19.83
2022-10-09T08:08:09.387Z,34.30
2022-10-09T08:11:24.201Z,14.80
2022-10-09T08:14:36.052Z,13.48
2022-10-09T08:17:47.800Z,9.40
2022-10-09T08:21:08.838Z,12.45
2022-10-09T08:24:20.850Z,13.05
2022-10-09T08:27:32.819Z,11.55
2022-10-09T08:30:44.895Z,13.43
2022-10-09T08:34:00.216Z,8.40
2022-10-09T08:37:12.566Z,8.33
2022-10-09T08:40:29.442Z,10.38
2022-10-09T08:43:46.744Z,25.18
2022-10-09T08:47:13.519Z,13.58
2022-10-09T08:50:30.362Z,11.23
2022-10-09T08:53:47.246Z,9.13
2022-10-09T08:57:00.317Z,11.63
2022-10-09T09:00:20.851Z,7.03
2022-10-09T09:03:56.204Z,8.30
2022-10-09T09:07:18.361Z,7.50
2022-10-09T09:10:39.522Z,9.65
2022-10-09T09:14:03.554Z,7.08
2022-10-09T09:17:22.570Z,6.55
2022-10-09T09:20:40.382Z,10.10
2022-10-09T09:23:54.010Z,10.15
2022-10-09T09:27:12.530Z,9.30
2022-10-09T09:30:32.314Z,14.30
2022-10-09T09:33:50.068Z,6.90
2022-10-09T09:37:05.086Z,10.03
2022-10-09T09:40:39.297Z,10.10
2022-10-09T09:54:29.915Z,8.93
2022-10-09T09:57:47.967Z,6.95
2022-10-09T10:01:06.504Z,10.30
2022-10-09T10:04:28.264Z,11.50
2022-10-09T10:07:42.272Z,12.55
2022-10-09T10:10:55.557Z,8.33
2022-10-09T10:14:17.491Z,8.98
2022-10-09T10:17:34.718Z,5.33
2022-10-09T10:20:53.928Z,7.83
2022-10-09T10:24:08.932Z,11.28
2022-10-09T10:27:27.135Z,7.85
2022-10-09T10:30:40.290Z,9.80
2022-10-09T10:33:59.230Z,4.70
2022-10-09T10:37:18.669Z,5.35
2022-10-09T10:40:37.630Z,8.15
2022-10-09T10:43:55.482Z,4.03
2022-10-09T10:47:13.973Z,5.40
2022-10-09T10:50:29.199Z,4.85
2022-10-09T10:53:54.606Z,4.78
2022-10-09T10:57:17.313Z,3.00
2022-10-09T11:00:29.435Z,8.08
2022-10-09T11:03:51.571Z,4.48
2022-10-09T11:07:11.968Z,6.40
2022-10-09T11:16:39.183Z,34.80
2022-10-09T11:20:11.190Z,21.10
2022-10-09T11:23:30.367Z,14.35
2022-10-09T11:26:48.170Z,13.28
2022-10-09T11:30:05.451Z,5.00
2022-10-09T11:33:37.043Z,5.40
2022-10-09T11:36:51.264Z,4.28
2022-10-09T11:40:03.435Z,3.35
2022-10-09T11:43:22.830Z,6.33
2022-10-09T11:46:46.288Z,3.80
2022-10-09T11:50:21.199Z,5.83
2022-10-09T11:53:37.074Z,4.53
2022-10-09T11:57:00.804Z,21.98
2022-10-09T12:00:17.249Z,16.15
2022-10-09T12:03:36.921Z,6.98
2022-10-09T12:06:59.889Z,6.63
2022-10-09T12:10:24.580Z,6.78
2022-10-09T12:13:52.247Z,6.10
2022-10-09T12:17:04.918Z,6.13
2022-10-09T12:20:23.742Z,4.85
2022-10-09T12:23:39.582Z,3.30
2022-10-09T12:26:52.957Z,2.35
2022-10-09T12:30:09.935Z,5.63
2022-10-09T12:36:37.781Z,11.38
2022-10-09T12:39:55.164Z,10.90
2022-10-09T12:43:11.938Z,6.33
2022-10-09T12:46:34.573Z,6.05
2022-10-09T12:49:46.457Z,4.33
2022-10-09T12:53:01.374Z,5.03
2022-10-09T12:56:18.854Z,3.73
2022-10-09T12:59:33.514Z,4.83
2022-10-09T13:02:45.996Z,4.60
2022-10-09T13:06:00.657Z,2.90
2022-10-09T13:09:22.434Z,3.88
2022-10-09T13:12:35.726Z,2.70
2022-10-09T13:15:47.426Z,6.20
2022-10-09T13:19:07.780Z,2.18
2022-10-09T13:22:29.114Z,81.73
2022-10-09T13:25:45.291Z,25.55
2022-10-09T13:28:58.120Z,8.38
2022-10-09T13:32:10.809Z,8.08
2022-10-09T13:35:22.873Z,2.58
2022-10-09T13:38:35.520Z,5.53
2022-10-09T13:41:48.406Z,2.73
2022-10-09T13:45:00.043Z,5.10
2022-10-09T13:48:11.717Z,5.33
2022-10-09T13:51:23.484Z,3.88
2022-10-09T13:54:35.385Z,9.00
2022-10-09T13:57:47.186Z,4.75
2022-10-09T14:00:59.613Z,3.73
2022-10-09T14:04:11.378Z,5.33
2022-10-09T14:07:23.176Z,7.18
2022-10-09T14:10:35.255Z,4.88
2022-10-09T14:13:46.948Z,9.30
2022-10-09T14:16:58.668Z,5.45
2022-10-09T14:20:11.319Z,5.55
2022-10-09T14:23:23.513Z,3.65
2022-10-09T14:26:35.929Z,3.10
2022-10-09T14:29:49.246Z,7.10
2022-10-09T14:33:03.882Z,19.98
2022-10-09T14:36:20.227Z,14.48
2022-10-09T14:39:32.977Z,18.37
2022-10-09T14:42:45.936Z,18.65
2022-10-09T14:46:06.559Z,9.68
2022-10-09T14:49:21.800Z,8.40
2022-10-09T14:52:33.629Z,6.00
2022-10-09T14:55:45.506Z,6.10
2022-10-09T14:58:57.843Z,13.93
2022-10-09T15:02:09.765Z,59.13
2022-10-09T15:05:22.964Z,9.48
2022-10-09T15:08:37.868Z,4.73
2022-10-09T15:11:49.734Z,4.23
2022-10-09T15:15:01.456Z,2.80
2022-10-09T15:18:13.612Z,2.88
2022-10-09T15:21:28.588Z,2.38
2022-10-09T15:24:40.260Z,5.15
2022-10-09T15:27:54.683Z,2.95
2022-10-09T15:31:09.620Z,4.45
2022-10-09T15:34:25.481Z,4.13
2022-10-09T15:37:37.228Z,6.83
2022-10-09T15:40:53.677Z,5.75
2022-10-09T15:44:09.947Z,5.93
2022-10-09T15:47:39.366Z,3.53
2022-10-09T15:50:37.597Z,6.25
2022-10-09T15:53:51.380Z,3.20
2022-10-09T15:57:03.212Z,4.10
2022-10-09T16:00:18.695Z,9.03
2022-10-09T16:03:32.523Z,55.03
2022-10-09T16:06:44.334Z,17.80
2022-10-09T16:09:56.831Z,16.05
2022-10-09T16:13:08.759Z,15.28
2022-10-09T16:16:23.457Z,11.28
2022-10-09T16:19:35.186Z,12.60
2022-10-09T16:22:47.085Z,4.08
2022-10-09T16:26:06.973Z,10.83
2022-10-09T16:29:18.691Z,11.98
2022-10-09T16:32:30.880Z,10.53
2022-10-09T16:35:42.874Z,12.00
2022-10-09T16:38:55.427Z,6.00
2022-10-09T16:42:07.428Z,12.23
2022-10-09T16:45:19.658Z,12.78
2022-10-09T16:48:31.610Z,14.95
2022-10-09T16:51:43.774Z,13.55
2022-10-09T16:55:00.158Z,8.53
2022-10-09T16:58:10.499Z,13.58
2022-10-09T17:01:22.590Z,10.03
2022-10-09T17:04:35.510Z,19.73
2022-10-09T17:07:47.838Z,15.38
2022-10-09T17:11:00.132Z,14.70
2022-10-09T17:14:12.660Z,9.68
2022-10-09T17:17:24.492Z,19.48
2022-10-09T17:20:37.500Z,16.50
2022-10-09T17:23:53.364Z,10.00
2022-10-09T17:27:07.520Z,11.93
2022-10-09T17:30:21.180Z,10.80
2022-10-09T17:33:34.155Z,12.25
2022-10-09T17:36:48.552Z,12.18
2022-10-09T17:40:00.584Z,15.63
2022-10-09T17:43:12.846Z,17.55
2022-10-09T17:46:25.954Z,15.10
2022-10-09T17:49:38.088Z,13.65
2022-10-09T17:52:50.184Z,13.78
2022-10-09T17:56:07.979Z,14.88
2022-10-09T17:59:20.102Z,14.68
2022-10-09T18:02:32.408Z,10.70
2022-10-09T18:05:50.148Z,9.88
2022-10-09T18:09:03.316Z,13.80
2022-10-09T18:12:15.793Z,12.70
2022-10-09T18:15:27.999Z,12.78
2022-10-09T18:18:40.246Z,12.88
2022-10-09T18:21:54.393Z,18.00
2022-10-09T18:25:07.570Z,13.15
2022-10-09T18:28:20.531Z,11.70
2022-10-09T18:31:36.684Z,16.48
2022-10-09T18:34:49.127Z,15.43
2022-10-09T18:38:00.986Z,17.33
2022-10-09T18:41:15.605Z,13.93
2022-10-09T18:44:30.291Z,20.80
2022-10-09T18:47:42.850Z,19.05
2022-10-09T18:50:55.288Z,15.23
2022-10-09T18:54:12.274Z,15.98
2022-10-09T18:57:24.729Z,18.23
2022-10-09T19:00:39.571Z,15.93
2022-10-09T19:03:52.929Z,25.30
2022-10-09T19:07:05.044Z,16.30
2022-10-09T19:10:17.546Z,16.48
2022-10-09T19:13:29.806Z,13.58
2022-10-09T19:16:42.118Z,20.45
2022-10-09T19:19:54.438Z,12.78
2022-10-09T19:23:06.618Z,16.35
2022-10-09T19:26:19.813Z,16.18
2022-10-09T19:29:32.521Z,20.95
2022-10-09T19:32:44.352Z,33.08
2022-10-09T19:35:59.729Z,28.60
2022-10-09T19:39:13.513Z,24.68
2022-10-09T19:42:26.871Z,21.33
2022-10-09T19:45:39.041Z,17.68
2022-10-09T19:48:52.825Z,23.23
2022-10-09T19:52:04.944Z,23.58
2022-10-09T19:55:18.809Z,18.25
2022-10-09T19:58:30.688Z,22.25
2022-10-09T20:01:43.578Z,19.23
2022-10-09T20:04:57.095Z,20.35
2022-10-09T20:08:09.051Z,23.38
2022-10-09T20:11:21.788Z,21.83
2022-10-09T20:14:34.184Z,18.33
2022-10-09T20:17:46.186Z,18.08
2022-10-09T20:20:58.057Z,18.33
2022-10-09T20:24:11.366Z,16.63
2022-10-09T20:27:23.072Z,20.85
2022-10-09T20:30:34.805Z,19.35
2022-10-09T20:33:47.955Z,19.13
2022-10-09T20:37:01.653Z,23.40
2022-10-09T20:40:15.248Z,21.60
2022-10-09T20:43:27.329Z,23.08
2022-10-09T20:46:41.572Z,26.15
2022-10-09T20:49:53.926Z,25.85
2022-10-09T20:53:06.262Z,24.18
2022-10-09T20:56:20.854Z,34.98
2022-10-09T20:59:32.765Z,30.10
2022-10-09T21:02:44.931Z,33.05
2022-10-09T21:05:58.220Z,30.70
2022-10-09T21:09:10.741Z,34.00
2022-10-09T21:12:22.649Z,31.03
2022-10-09T21:15:34.379Z,32.38
2022-10-09T21:18:46.225Z,30.78
2022-10-09T21:21:58.023Z,28.95
2022-10-09T21:25:10.895Z,30.73
2022-10-09T21:28:23.529Z,31.30
2022-10-09T21:31:37.305Z,33.05
2022-10-09T21:34:50.565Z,28.90
2022-10-09T21:38:02.263Z,29.05
2022-10-09T21:41:14.213Z,30.00
2022-10-09T21:44:26.159Z,30.88
2022-10-09T21:47:37.894Z,30.68
2022-10-09T21:50:50.253Z,29.75
2022-10-09T21:54:02.401Z,34.15
2022-10-09T21:57:14.039Z,31.38
2022-10-09T22:00:26.557Z,32.05
2022-10-09T22:03:41.256Z,31.83
2022-10-09T22:06:53.007Z,36.33
2022-10-09T22:10:05.211Z,30.75
2022-10-09T22:13:17.143Z,29.53
2022-10-09T22:16:29.271Z,34.53
2022-10-09T22:19:40.948Z,33.93
2022-10-09T22:22:55.105Z,31.35
2022-10-09T22:26:10.263Z,32.20
2022-10-09T22:29:21.961Z,27.60
2022-10-09T22:32:33.840Z,32.80
2022-10-09T22:35:45.850Z,28.33
2022-10-09T22:39:01.254Z,31.70
2022-10-09T22:42:13.118Z,27.60
2022-10-09T22:45:24.883Z,33.15
2022-10-09T22:48:36.661Z,33.80
2022-10-09T22:51:49.145Z,35.90
2022-10-09T22:55:01.432Z,32.95
2022-10-09T22:58:13.081Z,31.73
2022-10-09T23:01:31.335Z,33.98
2022-10-09T23:04:43.268Z,31.98
2022-10-09T23:07:55.737Z,29.70
2022-10-09T23:11:07.618Z,26.85
2022-10-09T23:14:20.707Z,25.48
2022-10-09T23:17:32.549Z,28.13
2022-10-09T23:20:44.712Z,28.60
2022-10-09T23:23:57.662Z,28.25
2022-10-09T23:27:10.370Z,25.40
2022-10-09T23:30:22.846Z,28.60
2022-10-09T23:33:38.117Z,26.43
2022-10-09T23:36:50.108Z,22.08
2022-10-09T23:40:01.905Z,25.40
2022-10-09T23:43:13.925Z,24.98
2022-10-09T23:46:29.173Z,24.38
2022-10-09T23:49:40.985Z,24.05
2022-10-09T23:52:53.032Z,29.33
2022-10-09T23:56:05.178Z,28.70
2022-10-09T23:59:18.757Z,25.33
